sensor_id;sensor_type;location;lat;lon;timestamp;temperature;humidity
21712;DHT22;11017;53.552;9.910;2022-12-18T00:01:04;-2.70;99.90
21712;DHT22;11017;53.552;9.910;2022-12-18T00:03:32;-2.60;99.90
21712;DHT22;11017;53.552;9.910;2022-12-18T00:06:00;-2.60;99.90
21712;DHT22;11017;53.552;9.910;2022-12-18T00:08:28;-2.60;99.90
21712;DHT22;11017;53.552;9.910;2022-12-18T00:10:55;-2.50;99.90
21712;DHT22;11017;53.552;9.910;2022-12-18T00:13:22;-2.50;99.90
21712;DHT22;11017;53.552;9.910;2022-12-18T00:15:48;-2.40;99.90
21712;DHT22;11017;53.552;9.910;2022-12-18T00:18:15;-2.40;99.90
21712;DHT22;11017;53.552;9.910;2022-12-18T00:20:42;-2.40;99.90
21712;DHT22;11017;53.552;9.910;2022-12-18T00:23:10;-2.30;99.90
21712;DHT22;11017;53.552;9.910;2022-12-18T00:25:37;-2.40;99.90
21712;DHT22;11017;53.552;9.910;2022-12-18T00:28:04;-2.30;99.90
21712;DHT22;11017;53.552;9.910;2022-12-18T00:30:31;-2.30;99.90
21712;DHT22;11017;53.552;9.910;2022-12-18T00:32:58;-2.30;99.90
21712;DHT22;11017;53.552;9.910;2022-12-18T00:35:25;-2.30;99.90
21712;DHT22;11017;53.552;9.910;2022-12-18T00:37:52;-2.20;99.90
21712;DHT22;11017;53.552;9.910;2022-12-18T00:40:21;-2.10;99.90
21712;DHT22;11017;53.552;9.910;2022-12-18T00:42:48;-2.20;99.90
21712;DHT22;11017;53.552;9.910;2022-12-18T00:45:23;-2.30;99.90
21712;DHT22;11017;53.552;9.910;2022-12-18T00:47:50;-2.20;99.90
21712;DHT22;11017;53.552;9.910;2022-12-18T00:50:17;-2.20;99.90
21712;DHT22;11017;53.552;9.910;2022-12-18T00:52:44;-2.30;99.90
21712;DHT22;11017;53.552;9.910;2022-12-18T00:55:14;-2.30;99.90
21712;DHT22;11017;53.552;9.910;2022-12-18T00:57:42;-2.40;99.90
21712;DHT22;11017;53.552;9.910;2022-12-18T01:00:11;-2.40;99.90
21712;DHT22;11017;53.552;9.910;2022-12-18T01:02:40;-2.40;99.90
21712;DHT22;11017;53.552;9.910;2022-12-18T01:05:08;-2.40;99.90
21712;DHT22;11017;53.552;9.910;2022-12-18T01:07:35;-2.30;99.90
21712;DHT22;11017;53.552;9.910;2022-12-18T01:10:02;-2.30;99.90
21712;DHT22;11017;53.552;9.910;2022-12-18T01:12:29;-2.30;99.90
21712;DHT22;11017;53.552;9.910;2022-12-18T01:14:59;-2.40;99.90
21712;DHT22;11017;53.552;9.910;2022-12-18T01:17:26;-2.40;99.90
21712;DHT22;11017;53.552;9.910;2022-12-18T01:19:55;-2.50;99.90
21712;DHT22;11017;53.552;9.910;2022-12-18T01:22:22;-2.50;99.90
21712;DHT22;11017;53.552;9.910;2022-12-18T01:24:48;-2.50;99.90
21712;DHT22;11017;53.552;9.910;2022-12-18T01:27:15;-2.60;99.90
21712;DHT22;11017;53.552;9.910;2022-12-18T01:29:47;-2.60;99.90
21712;DHT22;11017;53.552;9.910;2022-12-18T01:32:15;-2.60;99.90
21712;DHT22;11017;53.552;9.910;2022-12-18T01:34:42;-2.60;99.90
21712;DHT22;11017;53.552;9.910;2022-12-18T01:37:09;-2.60;99.90
21712;DHT22;11017;53.552;9.910;2022-12-18T01:39:36;-2.70;99.90
21712;DHT22;11017;53.552;9.910;2022-12-18T01:42:10;-2.70;99.90
21712;DHT22;11017;53.552;9.910;2022-12-18T01:44:59;-2.70;99.90
21712;DHT22;11017;53.552;9.910;2022-12-18T01:47:34;-2.70;99.90
21712;DHT22;11017;53.552;9.910;2022-12-18T01:50:06;-2.70;99.90
21712;DHT22;11017;53.552;9.910;2022-12-18T01:52:34;-2.60;99.90
21712;DHT22;11017;53.552;9.910;2022-12-18T01:55:03;-2.70;99.90
21712;DHT22;11017;53.552;9.910;2022-12-18T01:57:31;-2.70;99.90
21712;DHT22;11017;53.552;9.910;2022-12-18T02:00:06;-2.80;99.90
21712;DHT22;11017;53.552;9.910;2022-12-18T02:02:35;-2.80;99.90
21712;DHT22;11017;53.552;9.910;2022-12-18T02:05:03;-2.80;99.90
21712;DHT22;11017;53.552;9.910;2022-12-18T02:07:37;-2.80;99.90
21712;DHT22;11017;53.552;9.910;2022-12-18T02:10:09;-2.80;99.90
21712;DHT22;11017;53.552;9.910;2022-12-18T02:12:43;-2.70;99.90
21712;DHT22;11017;53.552;9.910;2022-12-18T02:15:17;-2.70;99.90
21712;DHT22;11017;53.552;9.910;2022-12-18T02:17:50;-2.70;99.90
21712;DHT22;11017;53.552;9.910;2022-12-18T02:20:23;-2.80;99.90
21712;DHT22;11017;53.552;9.910;2022-12-18T02:23:04;-2.90;99.90
21712;DHT22;11017;53.552;9.910;2022-12-18T02:28:19;-2.80;99.90
21712;DHT22;11017;53.552;9.910;2022-12-18T02:30:48;-2.80;99.90
21712;DHT22;11017;53.552;9.910;2022-12-18T02:33:16;-2.70;99.90
21712;DHT22;11017;53.552;9.910;2022-12-18T02:35:44;-2.80;99.90
21712;DHT22;11017;53.552;9.910;2022-12-18T02:38:12;-2.90;99.90
21712;DHT22;11017;53.552;9.910;2022-12-18T02:40:41;-2.90;99.90
21712;DHT22;11017;53.552;9.910;2022-12-18T02:43:09;-3.00;99.90
21712;DHT22;11017;53.552;9.910;2022-12-18T02:45:46;-3.00;99.90
21712;DHT22;11017;53.552;9.910;2022-12-18T02:48:13;-3.00;99.90
21712;DHT22;11017;53.552;9.910;2022-12-18T02:50:45;-3.00;99.90
21712;DHT22;11017;53.552;9.910;2022-12-18T02:53:20;-3.10;99.90
21712;DHT22;11017;53.552;9.910;2022-12-18T02:55:58;-3.10;99.90
21712;DHT22;11017;53.552;9.910;2022-12-18T02:58:32;-3.00;99.90
21712;DHT22;11017;53.552;9.910;2022-12-18T03:01:05;-3.00;99.90
21712;DHT22;11017;53.552;9.910;2022-12-18T03:03:40;-3.10;99.90
21712;DHT22;11017;53.552;9.910;2022-12-18T03:06:12;-3.20;99.90
21712;DHT22;11017;53.552;9.910;2022-12-18T03:08:42;-3.20;99.90
21712;DHT22;11017;53.552;9.910;2022-12-18T03:11:12;-3.30;99.90
21712;DHT22;11017;53.552;9.910;2022-12-18T03:13:44;-3.30;99.90
21712;DHT22;11017;53.552;9.910;2022-12-18T03:16:22;-3.20;99.90
21712;DHT22;11017;53.552;9.910;2022-12-18T03:18:52;-3.20;99.90
21712;DHT22;11017;53.552;9.910;2022-12-18T03:21:24;-3.30;99.90
21712;DHT22;11017;53.552;9.910;2022-12-18T03:23:53;-3.40;99.90
21712;DHT22;11017;53.552;9.910;2022-12-18T03:26:24;-3.50;99.90
21712;DHT22;11017;53.552;9.910;2022-12-18T03:28:57;-3.50;99.90
21712;DHT22;11017;53.552;9.910;2022-12-18T03:31:29;-3.50;99.90
21712;DHT22;11017;53.552;9.910;2022-12-18T03:34:00;-3.50;99.90
21712;DHT22;11017;53.552;9.910;2022-12-18T03:36:31;-3.40;99.90
21712;DHT22;11017;53.552;9.910;2022-12-18T03:38:58;-3.50;99.90
21712;DHT22;11017;53.552;9.910;2022-12-18T03:41:31;-3.50;99.90
21712;DHT22;11017;53.552;9.910;2022-12-18T03:44:05;-3.50;99.90
21712;DHT22;11017;53.552;9.910;2022-12-18T03:46:44;-3.50;99.90
21712;DHT22;11017;53.552;9.910;2022-12-18T03:49:17;-3.50;99.90
21712;DHT22;11017;53.552;9.910;2022-12-18T03:51:51;-3.50;99.90
21712;DHT22;11017;53.552;9.910;2022-12-18T03:54:20;-3.60;99.90
21712;DHT22;11017;53.552;9.910;2022-12-18T03:56:51;-3.50;99.90
21712;DHT22;11017;53.552;9.910;2022-12-18T03:59:20;-3.50;99.90
21712;DHT22;11017;53.552;9.910;2022-12-18T04:01:52;-3.50;99.90
21712;DHT22;11017;53.552;9.910;2022-12-18T04:04:21;-3.50;99.90
21712;DHT22;11017;53.552;9.910;2022-12-18T04:06:51;-3.40;99.90
21712;DHT22;11017;53.552;9.910;2022-12-18T04:09:21;-3.40;99.90
21712;DHT22;11017;53.552;9.910;2022-12-18T04:11:48;-3.30;99.90
21712;DHT22;11017;53.552;9.910;2022-12-18T04:14:15;-3.50;99.90
21712;DHT22;11017;53.552;9.910;2022-12-18T04:16:41;-3.40;99.90
21712;DHT22;11017;53.552;9.910;2022-12-18T04:19:10;-3.40;99.90
21712;DHT22;11017;53.552;9.910;2022-12-18T04:21:36;-3.40;99.90
21712;DHT22;11017;53.552;9.910;2022-12-18T04:24:04;-3.40;99.90
21712;DHT22;11017;53.552;9.910;2022-12-18T04:26:31;-3.40;99.90
21712;DHT22;11017;53.552;9.910;2022-12-18T04:28:57;-3.40;99.90
21712;DHT22;11017;53.552;9.910;2022-12-18T04:31:24;-3.40;99.90
21712;DHT22;11017;53.552;9.910;2022-12-18T04:33:51;-3.30;99.90
21712;DHT22;11017;53.552;9.910;2022-12-18T04:36:19;-3.30;99.90
21712;DHT22;11017;53.552;9.910;2022-12-18T04:38:46;-3.30;99.90
21712;DHT22;11017;53.552;9.910;2022-12-18T04:41:13;-3.40;99.90
21712;DHT22;11017;53.552;9.910;2022-12-18T04:43:40;-3.40;99.90
21712;DHT22;11017;53.552;9.910;2022-12-18T04:46:08;-3.40;99.90
21712;DHT22;11017;53.552;9.910;2022-12-18T04:48:35;-3.30;99.90
21712;DHT22;11017;53.552;9.910;2022-12-18T04:51:02;-3.30;99.90
21712;DHT22;11017;53.552;9.910;2022-12-18T04:53:31;-3.40;99.90
21712;DHT22;11017;53.552;9.910;2022-12-18T04:56:06;-3.40;99.90
21712;DHT22;11017;53.552;9.910;2022-12-18T04:58:33;-3.40;99.90
21712;DHT22;11017;53.552;9.910;2022-12-18T05:01:01;-3.40;99.90
21712;DHT22;11017;53.552;9.910;2022-12-18T05:03:28;-3.30;99.90
21712;DHT22;11017;53.552;9.910;2022-12-18T05:05:56;-3.40;99.90
21712;DHT22;11017;53.552;9.910;2022-12-18T05:08:23;-3.40;99.90
21712;DHT22;11017;53.552;9.910;2022-12-18T05:10:58;-3.50;99.90
21712;DHT22;11017;53.552;9.910;2022-12-18T05:13:25;-3.50;99.90
21712;DHT22;11017;53.552;9.910;2022-12-18T05:16:00;-3.50;99.90
21712;DHT22;11017;53.552;9.910;2022-12-18T05:18:29;-3.60;99.90
21712;DHT22;11017;53.552;9.910;2022-12-18T05:20:57;-3.60;99.90
21712;DHT22;11017;53.552;9.910;2022-12-18T05:23:24;-3.70;99.90
21712;DHT22;11017;53.552;9.910;2022-12-18T05:25:53;-3.80;99.90
21712;DHT22;11017;53.552;9.910;2022-12-18T05:28:21;-3.80;99.90
21712;DHT22;11017;53.552;9.910;2022-12-18T05:30:49;-3.80;99.90
21712;DHT22;11017;53.552;9.910;2022-12-18T05:33:17;-3.80;99.90
21712;DHT22;11017;53.552;9.910;2022-12-18T05:35:44;-3.90;99.90
21712;DHT22;11017;53.552;9.910;2022-12-18T05:38:11;-3.90;99.90
21712;DHT22;11017;53.552;9.910;2022-12-18T05:40:41;-3.90;99.90
21712;DHT22;11017;53.552;9.910;2022-12-18T05:43:10;-3.90;99.90
21712;DHT22;11017;53.552;9.910;2022-12-18T05:45:37;-3.80;99.90
21712;DHT22;11017;53.552;9.910;2022-12-18T05:48:05;-3.70;99.90
21712;DHT22;11017;53.552;9.910;2022-12-18T05:50:34;-3.80;99.90
21712;DHT22;11017;53.552;9.910;2022-12-18T05:53:01;-3.90;99.90
21712;DHT22;11017;53.552;9.910;2022-12-18T05:55:28;-3.90;99.90
21712;DHT22;11017;53.552;9.910;2022-12-18T05:57:55;-3.90;99.90
21712;DHT22;11017;53.552;9.910;2022-12-18T06:00:23;-3.90;99.90
21712;DHT22;11017;53.552;9.910;2022-12-18T06:02:50;-3.80;99.90
21712;DHT22;11017;53.552;9.910;2022-12-18T06:05:16;-3.70;99.90
21712;DHT22;11017;53.552;9.910;2022-12-18T06:07:43;-3.70;99.90
21712;DHT22;11017;53.552;9.910;2022-12-18T06:10:10;-3.60;99.90
21712;DHT22;11017;53.552;9.910;2022-12-18T06:12:37;-3.60;99.90
21712;DHT22;11017;53.552;9.910;2022-12-18T06:15:05;-3.60;99.90
21712;DHT22;11017;53.552;9.910;2022-12-18T06:17:34;-3.60;99.90
21712;DHT22;11017;53.552;9.910;2022-12-18T06:20:01;-3.60;99.90
21712;DHT22;11017;53.552;9.910;2022-12-18T06:22:30;-3.60;99.90
21712;DHT22;11017;53.552;9.910;2022-12-18T06:24:56;-3.60;99.90
21712;DHT22;11017;53.552;9.910;2022-12-18T06:27:24;-3.70;99.90
21712;DHT22;11017;53.552;9.910;2022-12-18T06:29:51;-3.60;99.90
21712;DHT22;11017;53.552;9.910;2022-12-18T06:32:18;-3.60;99.90
21712;DHT22;11017;53.552;9.910;2022-12-18T06:34:48;-3.50;99.90
21712;DHT22;11017;53.552;9.910;2022-12-18T06:37:15;-3.60;99.90
21712;DHT22;11017;53.552;9.910;2022-12-18T06:39:41;-3.70;99.90
21712;DHT22;11017;53.552;9.910;2022-12-18T06:42:10;-3.80;99.90
21712;DHT22;11017;53.552;9.910;2022-12-18T06:44:37;-3.80;99.90
21712;DHT22;11017;53.552;9.910;2022-12-18T06:47:04;-4.00;99.90
21712;DHT22;11017;53.552;9.910;2022-12-18T06:49:31;-4.00;99.90
21712;DHT22;11017;53.552;9.910;2022-12-18T06:51:59;-4.00;99.90
21712;DHT22;11017;53.552;9.910;2022-12-18T06:54:26;-4.00;99.90
21712;DHT22;11017;53.552;9.910;2022-12-18T06:56:53;-4.10;99.90
21712;DHT22;11017;53.552;9.910;2022-12-18T06:59:19;-4.00;99.90
21712;DHT22;11017;53.552;9.910;2022-12-18T07:01:46;-4.10;99.90
21712;DHT22;11017;53.552;9.910;2022-12-18T07:04:13;-4.10;99.90
21712;DHT22;11017;53.552;9.910;2022-12-18T07:06:40;-4.20;99.90
21712;DHT22;11017;53.552;9.910;2022-12-18T07:09:08;-4.10;99.90
21712;DHT22;11017;53.552;9.910;2022-12-18T07:11:35;-4.10;99.90
21712;DHT22;11017;53.552;9.910;2022-12-18T07:14:02;-4.00;99.90
21712;DHT22;11017;53.552;9.910;2022-12-18T07:16:29;-4.00;99.90
21712;DHT22;11017;53.552;9.910;2022-12-18T07:18:56;-4.00;99.90
21712;DHT22;11017;53.552;9.910;2022-12-18T07:21:24;-4.00;99.90
21712;DHT22;11017;53.552;9.910;2022-12-18T07:23:51;-4.00;99.90
21712;DHT22;11017;53.552;9.910;2022-12-18T07:26:20;-4.00;99.90
21712;DHT22;11017;53.552;9.910;2022-12-18T07:28:48;-4.00;99.90
21712;DHT22;11017;53.552;9.910;2022-12-18T07:31:17;-4.00;99.90
21712;DHT22;11017;53.552;9.910;2022-12-18T07:33:45;-4.00;99.90
21712;DHT22;11017;53.552;9.910;2022-12-18T07:36:13;-4.00;99.90
21712;DHT22;11017;53.552;9.910;2022-12-18T07:38:40;-3.90;99.90
21712;DHT22;11017;53.552;9.910;2022-12-18T07:41:08;-3.90;99.90
21712;DHT22;11017;53.552;9.910;2022-12-18T07:43:37;-3.80;99.90
21712;DHT22;11017;53.552;9.910;2022-12-18T07:46:05;-3.80;99.90
21712;DHT22;11017;53.552;9.910;2022-12-18T07:48:32;-3.80;99.90
21712;DHT22;11017;53.552;9.910;2022-12-18T07:51:00;-3.70;99.90
21712;DHT22;11017;53.552;9.910;2022-12-18T07:53:27;-3.70;99.90
21712;DHT22;11017;53.552;9.910;2022-12-18T07:55:55;-3.70;99.90
21712;DHT22;11017;53.552;9.910;2022-12-18T07:58:23;-3.70;99.90
21712;DHT22;11017;53.552;9.910;2022-12-18T08:00:51;-3.70;99.90
21712;DHT22;11017;53.552;9.910;2022-12-18T08:03:18;-3.70;99.90
21712;DHT22;11017;53.552;9.910;2022-12-18T08:05:45;-3.70;99.90
21712;DHT22;11017;53.552;9.910;2022-12-18T08:08:12;-3.60;99.90
21712;DHT22;11017;53.552;9.910;2022-12-18T08:10:39;-3.70;99.90
21712;DHT22;11017;53.552;9.910;2022-12-18T08:13:06;-3.60;99.90
21712;DHT22;11017;53.552;9.910;2022-12-18T08:15:33;-3.80;99.90
21712;DHT22;11017;53.552;9.910;2022-12-18T08:18:01;-3.80;99.90
21712;DHT22;11017;53.552;9.910;2022-12-18T08:20:28;-3.80;99.90
21712;DHT22;11017;53.552;9.910;2022-12-18T08:22:54;-3.80;99.90
21712;DHT22;11017;53.552;9.910;2022-12-18T08:25:23;-3.80;99.90
21712;DHT22;11017;53.552;9.910;2022-12-18T08:27:50;-3.70;99.90
21712;DHT22;11017;53.552;9.910;2022-12-18T08:30:17;-3.70;99.90
21712;DHT22;11017;53.552;9.910;2022-12-18T08:32:44;-3.70;99.90
21712;DHT22;11017;53.552;9.910;2022-12-18T08:35:12;-3.60;99.90
21712;DHT22;11017;53.552;9.910;2022-12-18T08:37:39;-3.60;99.90
21712;DHT22;11017;53.552;9.910;2022-12-18T08:40:07;-3.70;99.90
21712;DHT22;11017;53.552;9.910;2022-12-18T08:42:36;-3.80;99.90
21712;DHT22;11017;53.552;9.910;2022-12-18T08:45:21;-3.70;99.90
21712;DHT22;11017;53.552;9.910;2022-12-18T08:47:47;-3.50;99.90
21712;DHT22;11017;53.552;9.910;2022-12-18T08:50:16;-3.40;99.90
21712;DHT22;11017;53.552;9.910;2022-12-18T08:52:43;-3.50;99.90
21712;DHT22;11017;53.552;9.910;2022-12-18T08:55:10;-3.40;99.90
21712;DHT22;11017;53.552;9.910;2022-12-18T08:57:37;-3.40;99.90
21712;DHT22;11017;53.552;9.910;2022-12-18T09:00:04;-3.30;99.90
21712;DHT22;11017;53.552;9.910;2022-12-18T09:02:31;-3.30;99.90
21712;DHT22;11017;53.552;9.910;2022-12-18T09:04:58;-3.20;99.90
21712;DHT22;11017;53.552;9.910;2022-12-18T09:07:28;-3.10;99.90
21712;DHT22;11017;53.552;9.910;2022-12-18T09:09:55;-3.10;99.90
21712;DHT22;11017;53.552;9.910;2022-12-18T09:12:22;-3.20;99.90
21712;DHT22;11017;53.552;9.910;2022-12-18T09:14:49;-3.10;99.90
21712;DHT22;11017;53.552;9.910;2022-12-18T09:17:16;-3.10;99.90
21712;DHT22;11017;53.552;9.910;2022-12-18T09:19:43;-3.10;99.90
21712;DHT22;11017;53.552;9.910;2022-12-18T09:22:10;-3.00;99.90
21712;DHT22;11017;53.552;9.910;2022-12-18T09:24:38;-3.00;99.90
21712;DHT22;11017;53.552;9.910;2022-12-18T09:27:05;-2.80;99.90
21712;DHT22;11017;53.552;9.910;2022-12-18T09:29:32;-2.80;99.90
21712;DHT22;11017;53.552;9.910;2022-12-18T09:31:59;-2.70;99.90
21712;DHT22;11017;53.552;9.910;2022-12-18T09:34:26;-2.60;99.90
21712;DHT22;11017;53.552;9.910;2022-12-18T09:36:53;-2.50;99.90
21712;DHT22;11017;53.552;9.910;2022-12-18T09:39:20;-2.30;99.90
21712;DHT22;11017;53.552;9.910;2022-12-18T09:41:51;-2.40;99.90
21712;DHT22;11017;53.552;9.910;2022-12-18T09:44:25;-2.40;99.90
21712;DHT22;11017;53.552;9.910;2022-12-18T09:47:04;-2.30;99.90
21712;DHT22;11017;53.552;9.910;2022-12-18T09:49:37;-2.30;99.90
21712;DHT22;11017;53.552;9.910;2022-12-18T09:52:09;-2.20;99.90
21712;DHT22;11017;53.552;9.910;2022-12-18T09:54:40;-2.00;99.90
21712;DHT22;11017;53.552;9.910;2022-12-18T09:57:13;-1.90;99.90
21712;DHT22;11017;53.552;9.910;2022-12-18T09:59:42;-1.80;99.90
21712;DHT22;11017;53.552;9.910;2022-12-18T10:02:18;-1.90;99.90
21712;DHT22;11017;53.552;9.910;2022-12-18T10:05:00;-1.70;99.90
21712;DHT22;11017;53.552;9.910;2022-12-18T10:07:36;-1.50;99.90
21712;DHT22;11017;53.552;9.910;2022-12-18T10:10:13;-1.30;99.90
21712;DHT22;11017;53.552;9.910;2022-12-18T10:12:46;-1.20;99.90
21712;DHT22;11017;53.552;9.910;2022-12-18T10:15:24;-1.10;99.90
21712;DHT22;11017;53.552;9.910;2022-12-18T10:17:58;-1.20;99.90
21712;DHT22;11017;53.552;9.910;2022-12-18T10:20:33;-1.20;99.90
21712;DHT22;11017;53.552;9.910;2022-12-18T10:23:08;-1.30;99.90
21712;DHT22;11017;53.552;9.910;2022-12-18T10:25:45;-1.30;99.90
21712;DHT22;11017;53.552;9.910;2022-12-18T10:28:18;-1.10;99.90
21712;DHT22;11017;53.552;9.910;2022-12-18T10:30:45;-0.90;99.90
21712;DHT22;11017;53.552;9.910;2022-12-18T10:33:16;-1.00;99.90
21712;DHT22;11017;53.552;9.910;2022-12-18T10:35:45;-0.90;99.90
21712;DHT22;11017;53.552;9.910;2022-12-18T10:38:24;-1.00;99.90
21712;DHT22;11017;53.552;9.910;2022-12-18T10:40:53;-1.00;99.90
21712;DHT22;11017;53.552;9.910;2022-12-18T10:43:24;-1.00;99.90
21712;DHT22;11017;53.552;9.910;2022-12-18T10:46:04;-0.90;99.90
21712;DHT22;11017;53.552;9.910;2022-12-18T10:48:33;-0.80;99.90
21712;DHT22;11017;53.552;9.910;2022-12-18T10:51:02;-0.60;99.90
21712;DHT22;11017;53.552;9.910;2022-12-18T10:53:30;-0.40;99.90
21712;DHT22;11017;53.552;9.910;2022-12-18T10:55:59;-0.40;99.90
21712;DHT22;11017;53.552;9.910;2022-12-18T10:58:30;-0.50;99.90
21712;DHT22;11017;53.552;9.910;2022-12-18T11:01:05;-0.50;99.90
21712;DHT22;11017;53.552;9.910;2022-12-18T11:03:35;-0.40;99.90
21712;DHT22;11017;53.552;9.910;2022-12-18T11:06:05;-0.40;99.90
21712;DHT22;11017;53.552;9.910;2022-12-18T11:08:32;-0.40;99.90
21712;DHT22;11017;53.552;9.910;2022-12-18T11:10:59;-0.40;99.90
21712;DHT22;11017;53.552;9.910;2022-12-18T11:13:30;-0.30;99.90
21712;DHT22;11017;53.552;9.910;2022-12-18T11:15:58;-0.40;99.90
21712;DHT22;11017;53.552;9.910;2022-12-18T11:18:28;-0.50;99.90
21712;DHT22;11017;53.552;9.910;2022-12-18T11:20:57;-0.60;99.90
21712;DHT22;11017;53.552;9.910;2022-12-18T11:23:24;-0.50;99.90
21712;DHT22;11017;53.552;9.910;2022-12-18T11:25:55;-0.40;99.90
21712;DHT22;11017;53.552;9.910;2022-12-18T11:28:29;-0.60;99.90
21712;DHT22;11017;53.552;9.910;2022-12-18T11:31:22;-0.60;99.90
21712;DHT22;11017;53.552;9.910;2022-12-18T11:34:05;-0.60;99.90
21712;DHT22;11017;53.552;9.910;2022-12-18T11:36:39;-0.70;99.90
21712;DHT22;11017;53.552;9.910;2022-12-18T11:39:13;-0.70;99.90
21712;DHT22;11017;53.552;9.910;2022-12-18T11:41:48;-0.70;99.90
21712;DHT22;11017;53.552;9.910;2022-12-18T11:44:41;-0.70;99.90
21712;DHT22;11017;53.552;9.910;2022-12-18T11:47:15;-0.40;99.90
21712;DHT22;11017;53.552;9.910;2022-12-18T11:49:49;-0.20;99.90
21712;DHT22;11017;53.552;9.910;2022-12-18T11:52:18;0.10;99.90
21712;DHT22;11017;53.552;9.910;2022-12-18T11:54:46;0.40;99.90
21712;DHT22;11017;53.552;9.910;2022-12-18T11:57:19;0.30;99.90
21712;DHT22;11017;53.552;9.910;2022-12-18T11:59:55;0.40;99.90
21712;DHT22;11017;53.552;9.910;2022-12-18T12:02:38;0.20;99.90
21712;DHT22;11017;53.552;9.910;2022-12-18T12:05:21;0.00;99.90
21712;DHT22;11017;53.552;9.910;2022-12-18T12:07:54;0.20;99.90
21712;DHT22;11017;53.552;9.910;2022-12-18T12:10:32;0.00;99.90
21712;DHT22;11017;53.552;9.910;2022-12-18T12:13:14;-0.10;99.90
21712;DHT22;11017;53.552;9.910;2022-12-18T12:15:50;-0.30;99.90
21712;DHT22;11017;53.552;9.910;2022-12-18T12:18:29;-0.20;99.90
21712;DHT22;11017;53.552;9.910;2022-12-18T12:21:04;-0.30;99.90
21712;DHT22;11017;53.552;9.910;2022-12-18T12:23:41;-0.40;99.90
21712;DHT22;11017;53.552;9.910;2022-12-18T12:26:11;-0.60;99.90
21712;DHT22;11017;53.552;9.910;2022-12-18T12:28:55;-0.60;99.90
21712;DHT22;11017;53.552;9.910;2022-12-18T12:31:38;-0.70;99.90
21712;DHT22;11017;53.552;9.910;2022-12-18T12:34:14;-0.70;99.90
21712;DHT22;11017;53.552;9.910;2022-12-18T12:37:00;-0.60;99.90
21712;DHT22;11017;53.552;9.910;2022-12-18T12:39:34;-0.60;99.90
21712;DHT22;11017;53.552;9.910;2022-12-18T12:42:03;-0.40;99.90
21712;DHT22;11017;53.552;9.910;2022-12-18T12:44:53;-0.50;99.90
21712;DHT22;11017;53.552;9.910;2022-12-18T12:47:25;-0.50;99.90
21712;DHT22;11017;53.552;9.910;2022-12-18T12:49:54;-0.40;99.90
21712;DHT22;11017;53.552;9.910;2022-12-18T12:52:28;-0.60;99.90
21712;DHT22;11017;53.552;9.910;2022-12-18T12:54:58;-0.50;99.90
21712;DHT22;11017;53.552;9.910;2022-12-18T12:57:32;-0.30;99.90
21712;DHT22;11017;53.552;9.910;2022-12-18T13:00:03;-0.30;99.90
21712;DHT22;11017;53.552;9.910;2022-12-18T13:02:35;-0.20;99.90
21712;DHT22;11017;53.552;9.910;2022-12-18T13:05:15;-0.20;99.90
21712;DHT22;11017;53.552;9.910;2022-12-18T13:07:49;-0.20;99.90
21712;DHT22;11017;53.552;9.910;2022-12-18T13:10:26;-0.30;99.90
21712;DHT22;11017;53.552;9.910;2022-12-18T13:12:56;-0.40;99.90
21712;DHT22;11017;53.552;9.910;2022-12-18T13:15:26;-0.20;99.90
21712;DHT22;11017;53.552;9.910;2022-12-18T13:18:10;-0.10;99.90
21712;DHT22;11017;53.552;9.910;2022-12-18T13:20:40;-0.10;99.90
21712;DHT22;11017;53.552;9.910;2022-12-18T13:23:34;0.00;99.90
21712;DHT22;11017;53.552;9.910;2022-12-18T13:26:29;-0.40;99.90
21712;DHT22;11017;53.552;9.910;2022-12-18T13:28:59;-0.60;99.90
21712;DHT22;11017;53.552;9.910;2022-12-18T13:34:35;-0.50;99.90
21712;DHT22;11017;53.552;9.910;2022-12-18T13:37:41;-0.60;99.90
21712;DHT22;11017;53.552;9.910;2022-12-18T13:43:36;-0.50;99.90
21712;DHT22;11017;53.552;9.910;2022-12-18T13:46:17;-0.50;99.90
21712;DHT22;11017;53.552;9.910;2022-12-18T13:49:00;-0.60;99.90
21712;DHT22;11017;53.552;9.910;2022-12-18T13:51:31;-0.70;99.90
21712;DHT22;11017;53.552;9.910;2022-12-18T13:54:00;-1.00;99.90
21712;DHT22;11017;53.552;9.910;2022-12-18T13:56:30;-1.00;99.90
21712;DHT22;11017;53.552;9.910;2022-12-18T13:59:13;-1.00;99.90
21712;DHT22;11017;53.552;9.910;2022-12-18T14:01:45;-1.00;99.90
21712;DHT22;11017;53.552;9.910;2022-12-18T14:04:19;-1.20;99.90
21712;DHT22;11017;53.552;9.910;2022-12-18T14:06:50;-1.30;99.90
21712;DHT22;11017;53.552;9.910;2022-12-18T14:09:24;-1.30;99.90
21712;DHT22;11017;53.552;9.910;2022-12-18T14:11:52;-1.40;99.90
21712;DHT22;11017;53.552;9.910;2022-12-18T14:14:42;-1.30;99.90
21712;DHT22;11017;53.552;9.910;2022-12-18T14:17:11;-1.30;99.90
21712;DHT22;11017;53.552;9.910;2022-12-18T14:19:42;-1.20;99.90
21712;DHT22;11017;53.552;9.910;2022-12-18T14:22:15;-1.40;99.90
21712;DHT22;11017;53.552;9.910;2022-12-18T14:24:43;-1.60;99.90
21712;DHT22;11017;53.552;9.910;2022-12-18T14:27:21;-1.60;99.90
21712;DHT22;11017;53.552;9.910;2022-12-18T14:29:49;-1.60;99.90
21712;DHT22;11017;53.552;9.910;2022-12-18T14:32:18;-1.70;99.90
21712;DHT22;11017;53.552;9.910;2022-12-18T14:34:46;-1.70;99.90
21712;DHT22;11017;53.552;9.910;2022-12-18T14:37:17;-1.70;99.90
21712;DHT22;11017;53.552;9.910;2022-12-18T14:39:57;-1.70;99.90
21712;DHT22;11017;53.552;9.910;2022-12-18T14:42:25;-1.70;99.90
21712;DHT22;11017;53.552;9.910;2022-12-18T14:47:55;-1.80;99.90
21712;DHT22;11017;53.552;9.910;2022-12-18T14:50:22;-1.80;99.90
21712;DHT22;11017;53.552;9.910;2022-12-18T14:52:50;-1.80;99.90
21712;DHT22;11017;53.552;9.910;2022-12-18T14:55:18;-1.90;99.90
21712;DHT22;11017;53.552;9.910;2022-12-18T14:57:49;-1.90;99.90
21712;DHT22;11017;53.552;9.910;2022-12-18T15:00:18;-1.90;99.90
21712;DHT22;11017;53.552;9.910;2022-12-18T15:02:51;-1.90;99.90
21712;DHT22;11017;53.552;9.910;2022-12-18T15:05:20;-1.80;99.90
21712;DHT22;11017;53.552;9.910;2022-12-18T15:07:50;-1.90;99.90
21712;DHT22;11017;53.552;9.910;2022-12-18T15:10:19;-2.00;99.90
21712;DHT22;11017;53.552;9.910;2022-12-18T15:12:47;-2.00;99.90
21712;DHT22;11017;53.552;9.910;2022-12-18T15:15:49;-2.00;99.90
21712;DHT22;11017;53.552;9.910;2022-12-18T15:18:18;-2.00;99.90
21712;DHT22;11017;53.552;9.910;2022-12-18T15:20:48;-2.00;99.90
21712;DHT22;11017;53.552;9.910;2022-12-18T15:23:22;-2.20;99.90
21712;DHT22;11017;53.552;9.910;2022-12-18T15:25:55;-2.30;99.90
21712;DHT22;11017;53.552;9.910;2022-12-18T15:28:25;-2.20;99.90
21712;DHT22;11017;53.552;9.910;2022-12-18T15:31:24;-2.30;99.90
21712;DHT22;11017;53.552;9.910;2022-12-18T15:34:09;-2.20;99.90
21712;DHT22;11017;53.552;9.910;2022-12-18T15:36:37;-2.10;99.90
21712;DHT22;11017;53.552;9.910;2022-12-18T15:39:06;-2.20;99.90
21712;DHT22;11017;53.552;9.910;2022-12-18T15:41:34;-2.10;99.90
21712;DHT22;11017;53.552;9.910;2022-12-18T15:44:01;-2.20;99.90
21712;DHT22;11017;53.552;9.910;2022-12-18T15:46:27;-2.10;99.90
21712;DHT22;11017;53.552;9.910;2022-12-18T15:48:55;-2.10;99.90
21712;DHT22;11017;53.552;9.910;2022-12-18T15:51:24;-2.10;99.90
21712;DHT22;11017;53.552;9.910;2022-12-18T15:53:55;-2.10;99.90
21712;DHT22;11017;53.552;9.910;2022-12-18T15:56:25;-2.20;99.90
21712;DHT22;11017;53.552;9.910;2022-12-18T15:59:11;-2.00;99.90
21712;DHT22;11017;53.552;9.910;2022-12-18T16:01:39;-2.10;99.90
21712;DHT22;11017;53.552;9.910;2022-12-18T16:04:09;-2.00;99.90